Observation data for Guthrie on 03/09/2018      Previous  Date  Next       Current Mesonet Observations  Soil Data  Daily Summary Page  Observations in Plain Language
KPFS 090600Z 18009KT 12/M07 A2989 RMK A01 T01181069  RH  027%=      5-min Rain = 0
KPFS 090605Z 18009KT 12/M07 A2989 RMK A01 T01171068  RH  027%=      5-min Rain = 0
KPFS 090610Z 18009KT 12/M07 A2989 RMK A01 T01181067  RH  027%=      5-min Rain = 0
KPFS 090615Z 18009KT 12/M07 A2988 RMK A01 T01181067  RH  027%=      5-min Rain = 0
KPFS 090620Z 18009KT 12/M07 A2988 RMK A01 T01181065  RH  027%=      5-min Rain = 0
KPFS 090625Z 18010KT 12/M06 A2988 RMK A01 T01191064  RH  028%=      5-min Rain = 0
KPFS 090630Z 18010KT 12/M06 A2988 RMK A01 T01201063  RH  028%=      5-min Rain = 0
KPFS 090635Z 18009KT 12/M06 A2988 RMK A01 T01191061  RH  028%=      5-min Rain = 0
KPFS 090640Z 18009KT 12/M06 A2988 RMK A01 T01171061  RH  029%=      5-min Rain = 0
KPFS 090645Z 19009KT 12/M06 A2988 RMK A01 T01151060  RH  029%=      5-min Rain = 0
KPFS 090650Z 19009KT 11/M06 A2988 RMK A01 T01141059  RH  029%=      5-min Rain = 0
KPFS 090655Z 20009KT 11/M06 A2988 RMK A01 T01141059  RH  030%=      5-min Rain = 0
KPFS 090700Z 20009KT 11/M06 A2988 RMK A01 T01111059  RH  030%=      5-min Rain = 0
KPFS 090705Z 20009KT 11/M06 A2988 RMK A01 T01111057  RH  031%=      5-min Rain = 0
KPFS 090710Z 19009KT 11/M06 A2988 RMK A01 T01111056  RH  031%=      5-min Rain = 0
KPFS 090715Z 19009KT 11/M06 A2988 RMK A01 T01121055  RH  031%=      5-min Rain = 0
KPFS 090720Z 19009KT 11/M05 A2988 RMK A01 T01121053  RH  031%=      5-min Rain = 0
KPFS 090725Z 19009KT 11/M05 A2988 RMK A01 T01121052  RH  031%=      5-min Rain = 0
KPFS 090730Z 19009KT 11/M05 A2988 RMK A01 T01131051  RH  032%=      5-min Rain = 0
KPFS 090735Z 19008KT 11/M05 A2988 RMK A01 T01121050  RH  032%=      5-min Rain = 0
KPFS 090740Z 19008KT 11/M05 A2988 RMK A01 T01121047  RH  033%=      5-min Rain = 0
KPFS 090745Z 18008KT 11/M05 A2988 RMK A01 T01111045  RH  033%=      5-min Rain = 0
KPFS 090750Z 19007KT 11/M04 A2988 RMK A01 T01111042  RH  034%=      5-min Rain = 0
KPFS 090755Z 19007KT 11/M04 A2988 RMK A01 T01101039  RH  035%=      5-min Rain = 0
KPFS 090800Z 19007KT 11/M04 A2988 RMK A01 T01101037  RH  036%=      5-min Rain = 0
KPFS 090805Z 20007KT 11/M03 A2987 RMK A01 T01121034  RH  036%=      5-min Rain = 0
KPFS 090810Z 20006KT 11/M03 A2987 RMK A01 T01111032  RH  037%=      5-min Rain = 0
KPFS 090815Z 21007KT 11/M03 A2987 RMK A01 T01101030  RH  038%=      5-min Rain = 0
KPFS 090820Z 21007KT 11/M03 A2987 RMK A01 T01121027  RH  038%=      5-min Rain = 0
KPFS 090825Z 21007KT 11/M03 A2987 RMK A01 T01131025  RH  039%=      5-min Rain = 0
KPFS 090830Z 21007KT 11/M02 A2986 RMK A01 T01131024  RH  039%=      5-min Rain = 0
KPFS 090835Z 21008KT 11/M02 A2986 RMK A01 T01131022  RH  039%=      5-min Rain = 0
KPFS 090840Z 21008KT 11/M02 A2986 RMK A01 T01131019  RH  040%=      5-min Rain = 0
KPFS 090845Z 21008KT 11/M02 A2985 RMK A01 T01141017  RH  040%=      5-min Rain = 0
KPFS 090850Z 21008KT 11/M02 A2985 RMK A01 T01121015  RH  041%=      5-min Rain = 0
KPFS 090855Z 21009KT 11/M01 A2985 RMK A01 T01131013  RH  042%=      5-min Rain = 0
KPFS 090900Z 20009KT 11/M01 A2985 RMK A01 T01141011  RH  042%=      5-min Rain = 0
KPFS 090905Z 20010KT 12/M01 A2985 RMK A01 T01171009  RH  042%=      5-min Rain = 0
KPFS 090910Z 20010KT 12/M01 A2984 RMK A01 T01171007  RH  043%=      5-min Rain = 0
KPFS 090915Z 20010KT 12/M01 A2984 RMK A01 T01171006  RH  043%=      5-min Rain = 0
KPFS 090920Z 21010KT 12/M01 A2984 RMK A01 T01171005  RH  044%=      5-min Rain = 0
KPFS 090925Z 21010KT 12/M00 A2984 RMK A01 T01161004  RH  044%=      5-min Rain = 0
KPFS 090930Z 21010KT 12/M00 A2984 RMK A01 T01161003  RH  044%=      5-min Rain = 0
KPFS 090935Z 21010KT 12/M00 A2984 RMK A01 T01151002  RH  045%=      5-min Rain = 0
KPFS 090940Z 21010KT 11/M00 A2984 RMK A01 T01141002  RH  045%=      5-min Rain = 0
KPFS 090945Z 21010KT 11/M00 A2983 RMK A01 T01121002  RH  046%=      5-min Rain = 0
KPFS 090950Z 21010KT 11/M00 A2983 RMK A01 T01091002  RH  047%=      5-min Rain = 0
KPFS 090955Z 21010KT 11/M00 A2983 RMK A01 T01081002  RH  047%=      5-min Rain = 0
KPFS 091000Z 21010KT 11/M00 A2983 RMK A01 T01081002  RH  047%=      5-min Rain = 0
KPFS 091005Z 21010KT 11/M00 A2983 RMK A01 T01061002  RH  048%=      5-min Rain = 0
KPFS 091010Z 21010KT 11/M00 A2983 RMK A01 T01061002  RH  048%=      5-min Rain = 0
KPFS 091015Z 21010KT 11/M00 A2983 RMK A01 T01061001  RH  048%=      5-min Rain = 0
KPFS 091020Z 20010KT 11/M00 A2983 RMK A01 T01061001  RH  048%=      5-min Rain = 0
KPFS 091025Z 21010KT 11/M00 A2983 RMK A01 T01061001  RH  048%=      5-min Rain = 0
KPFS 091030Z 21010KT 11/M00 A2983 RMK A01 T01051001  RH  048%=      5-min Rain = 0
KPFS 091035Z 21011KT 10/M00 A2983 RMK A01 T01041001  RH  049%=      5-min Rain = 0
KPFS 091040Z 21010KT 10/M00 A2983 RMK A01 T01041001  RH  049%=      5-min Rain = 0
KPFS 091045Z 21011KT 10/M00 A2983 RMK A01 T01021001  RH  049%=      5-min Rain = 0
KPFS 091050Z 21012KT 10/M00 A2983 RMK A01 T01021001  RH  050%=      5-min Rain = 0
KPFS 091055Z 21013KT 10/00 A2983 RMK A01 T010400-0  RH  049%=      5-min Rain = 0
KPFS 091100Z 21013G18KT 11/00 A2983 RMK A01 T010600-0  RH  048%=      5-min Rain = 0
KPFS 091105Z 21013KT 11/00 A2982 RMK A01 T01050000  RH  049%=      5-min Rain = 0
KPFS 091110Z 21014KT 10/00 A2982 RMK A01 T01040001  RH  049%=      5-min Rain = 0
KPFS 091115Z 20014KT 10/00 A2982 RMK A01 T01030001  RH  050%=      5-min Rain = 0
KPFS 091120Z 20013KT 10/00 A2982 RMK A01 T01010001  RH  050%=      5-min Rain = 0
KPFS 091125Z 20013KT 10/00 A2982 RMK A01 T01010002  RH  051%=      5-min Rain = 0
KPFS 091130Z 20013KT 10/00 A2982 RMK A01 T01000003  RH  051%=      5-min Rain = 0
KPFS 091135Z 20013KT 10/00 A2981 RMK A01 T00990003  RH  052%=      5-min Rain = 0
KPFS 091140Z 20012KT 10/00 A2981 RMK A01 T00980004  RH  052%=      5-min Rain = 0
KPFS 091145Z 20012KT 10/01 A2982 RMK A01 T00980005  RH  053%=      5-min Rain = 0
KPFS 091150Z 21012KT 10/01 A2982 RMK A01 T00980006  RH  053%=      5-min Rain = 0
KPFS 091155Z 21012KT 10/01 A2981 RMK A01 T00980006  RH  053%=      5-min Rain = 0
KPFS 091200Z 21012KT 10/01 A2981 RMK A01 T00980007  RH  054%=      5-min Rain = 0
KPFS 091205Z 21012KT 10/01 A2981 RMK A01 T00980007  RH  054%=      5-min Rain = 0
KPFS 091210Z 21012KT 10/01 A2981 RMK A01 T00980007  RH  054%=      5-min Rain = 0
KPFS 091215Z 21012KT 10/01 A2981 RMK A01 T00970008  RH  054%=      5-min Rain = 0
KPFS 091220Z 21012KT 10/01 A2981 RMK A01 T00950008  RH  055%=      5-min Rain = 0
KPFS 091225Z 20011KT 09/01 A2981 RMK A01 T00940008  RH  055%=      5-min Rain = 0
KPFS 091230Z 20010KT 09/01 A2981 RMK A01 T00930008  RH  056%=      5-min Rain = 0
KPFS 091235Z 21010KT 09/01 A2982 RMK A01 T00920008  RH  056%=      5-min Rain = 0
KPFS 091240Z 20009KT 09/01 A2982 RMK A01 T00900007  RH  057%=      5-min Rain = 0
KPFS 091245Z 20010KT 09/01 A2981 RMK A01 T00890007  RH  057%=      5-min Rain = 0
KPFS 091250Z 21010KT 09/01 A2981 RMK A01 T00890007  RH  057%=      5-min Rain = 0
KPFS 091255Z 21010KT 09/01 A2981 RMK A01 T00900007  RH  057%=      5-min Rain = 0
KPFS 091300Z 21010KT 09/01 A2981 RMK A01 T00890007  RH  057%=      5-min Rain = 0
KPFS 091305Z 21010KT 09/01 A2981 RMK A01 T00900007  RH  057%=      5-min Rain = 0
KPFS 091310Z 21009KT 09/01 A2981 RMK A01 T00880007  RH  057%=      5-min Rain = 0
KPFS 091315Z 22009KT 09/01 A2982 RMK A01 T00890007  RH  057%=      5-min Rain = 0
KPFS 091320Z 22010KT 09/01 A2981 RMK A01 T00900007  RH  057%=      5-min Rain = 0
KPFS 091325Z 22011KT 09/01 A2981 RMK A01 T00920007  RH  056%=      5-min Rain = 0
KPFS 091330Z 22012KT 09/01 A2981 RMK A01 T00930007  RH  056%=      5-min Rain = 0
KPFS 091335Z 22012KT 10/01 A2981 RMK A01 T00950007  RH  055%=      5-min Rain = 0
KPFS 091340Z 22013KT 10/01 A2981 RMK A01 T00980007  RH  054%=      5-min Rain = 0
KPFS 091345Z 22012KT 10/01 A2981 RMK A01 T01000007  RH  053%=      5-min Rain = 0
KPFS 091350Z 22012KT 10/01 A2981 RMK A01 T01030008  RH  052%=      5-min Rain = 0
KPFS 091355Z 22011KT 11/01 A2981 RMK A01 T01060010  RH  052%=      5-min Rain = 0
KPFS 091400Z 22012KT 11/01 A2982 RMK A01 T01100011  RH  051%=      5-min Rain = 0
KPFS 091405Z 22012G17KT 12/01 A2982 RMK A01 T01150014  RH  051%=      5-min Rain = 0
KPFS 091410Z 23011KT 12/02 A2982 RMK A01 T01190016  RH  050%=      5-min Rain = 0
KPFS 091415Z 23010G17KT 12/02 A2982 RMK A01 T01220017  RH  049%=      5-min Rain = 0
KPFS 091420Z 23010G16KT 13/02 A2983 RMK A01 T01250019  RH  049%=      5-min Rain = 0
KPFS 091425Z 22013KT 13/02 A2982 RMK A01 T01280021  RH  049%=      5-min Rain = 0
KPFS 091430Z 22012G17KT 13/02 A2983 RMK A01 T01310022  RH  048%=      5-min Rain = 0
KPFS 091435Z 23013G19KT 13/02 A2983 RMK A01 T01320023  RH  048%=      5-min Rain = 0
KPFS 091440Z 23014G19KT 13/03 A2983 RMK A01 T01340025  RH  048%=      5-min Rain = 0
KPFS 091445Z 23014G19KT 14/03 A2983 RMK A01 T01370026  RH  048%=      5-min Rain = 0
KPFS 091450Z 23015G24KT 14/03 A2983 RMK A01 T01400027  RH  047%=      5-min Rain = 0
KPFS 091455Z 23015G22KT 14/03 A2983 RMK A01 T01400026  RH  047%=      5-min Rain = 0
KPFS 091500Z 23014G19KT 14/03 A2983 RMK A01 T01430026  RH  046%=      5-min Rain = 0
KPFS 091505Z 23014G23KT 15/03 A2983 RMK A01 T01490026  RH  044%=      5-min Rain = 0
KPFS 091510Z 23018G25KT 15/03 A2982 RMK A01 T01480027  RH  045%=      5-min Rain = 0
KPFS 091515Z 23016G21KT 15/03 A2982 RMK A01 T01500029  RH  045%=      5-min Rain = 0
KPFS 091520Z 23017G24KT 15/03 A2982 RMK A01 T01540030  RH  044%=      5-min Rain = 0
KPFS 091525Z 22016G24KT 15/03 A2982 RMK A01 T01530031  RH  044%=      5-min Rain = 0
KPFS 091530Z 22014G19KT 16/03 A2983 RMK A01 T01590031  RH  043%=      5-min Rain = 0
KPFS 091535Z 24013G20KT 16/03 A2983 RMK A01 T01600030  RH  042%=      5-min Rain = 0
KPFS 091540Z 24011G16KT 17/03 A2983 RMK A01 T01650031  RH  041%=      5-min Rain = 0
KPFS 091545Z 23013G18KT 17/03 A2983 RMK A01 T01650030  RH  041%=      5-min Rain = 0
KPFS 091550Z 23015KT 17/03 A2983 RMK A01 T01690030  RH  040%=      5-min Rain = 0
KPFS 091555Z 23017KT 17/03 A2983 RMK A01 T01690028  RH  039%=      5-min Rain = 0
KPFS 091600Z 23015KT 17/03 A2982 RMK A01 T01700029  RH  039%=      5-min Rain = 0
KPFS 091605Z 23013KT 18/03 A2982 RMK A01 T01770031  RH  038%=      5-min Rain = 0
KPFS 091610Z 24017KT 18/03 A2982 RMK A01 T01800029  RH  037%=      5-min Rain = 0
KPFS 091615Z 24017G23KT 18/03 A2981 RMK A01 T01820028  RH  036%=      5-min Rain = 0
KPFS 091620Z 23017G22KT 18/03 A2981 RMK A01 T01830027  RH  036%=      5-min Rain = 0
KPFS 091625Z 24018KT 19/03 A2981 RMK A01 T01850027  RH  035%=      5-min Rain = 0
KPFS 091630Z 24017G23KT 19/03 A2981 RMK A01 T01870028  RH  035%=      5-min Rain = 0
KPFS 091635Z 23018KT 19/03 A298 RMK A01 T01910027  RH  034%=      5-min Rain = 0
KPFS 091640Z 24018KT 19/02 A2981 RMK A01 T01930024  RH  033%=      5-min Rain = 0
KPFS 091645Z 25018G24KT 20/02 A298 RMK A01 T01950021  RH  032%=      5-min Rain = 0
KPFS 091650Z 24016KT 20/02 A298 RMK A01 T02000022  RH  031%=      5-min Rain = 0
KPFS 091655Z 24015G21KT 21/02 A298 RMK A01 T02060019  RH  029%=      5-min Rain = 0
KPFS 091700Z 25017G22KT 21/01 A298 RMK A01 T02050008  RH  027%=      5-min Rain = 0
KPFS 091705Z 23017KT 21/01 A298 RMK A01 T02080010  RH  027%=      5-min Rain = 0
KPFS 091710Z 23017G27KT 21/01 A2979 RMK A01 T02110006  RH  026%=      5-min Rain = 0
KPFS 091715Z 24019G25KT 21/00 A2979 RMK A01 T02130002  RH  025%=      5-min Rain = 0
KPFS 091720Z 23017G25KT 22/00 A2979 RMK A01 T02180000  RH  024%=      5-min Rain = 0
KPFS 091725Z 23017KT 22/00 A2979 RMK A01 T022100-0  RH  023%=      5-min Rain = 0
KPFS 091730Z 23018G24KT 22/M01 A2979 RMK A01 T02211005  RH  022%=      5-min Rain = 0
KPFS 091735Z 23016KT 22/00 A2979 RMK A01 T02210001  RH  023%=      5-min Rain = 0
KPFS 091740Z 23017G22KT 23/M00 A2978 RMK A01 T02291004  RH  022%=      5-min Rain = 0
KPFS 091745Z 24014KT 23/M01 A2978 RMK A01 T02331008  RH  020%=      5-min Rain = 0
KPFS 091750Z 23014KT 24/M01 A2978 RMK A01 T02351010  RH  020%=      5-min Rain = 0
KPFS 091755Z 22014G19KT 24/M01 A2978 RMK A01 T02371011  RH  019%=      5-min Rain = 0
KPFS 091800Z 23015KT 24/M02 A2978 RMK A01 T02401016  RH  018%=      5-min Rain = 0
KPFS 091805Z 23013KT 24/M02 A2978 RMK A01 T02411017  RH  018%=      5-min Rain = 0
KPFS 091810Z 23012G19KT 25/M02 A2978 RMK A01 T02451015  RH  018%=      5-min Rain = 0
KPFS 091815Z 23012G18KT 25/M02 A2977 RMK A01 T02471015  RH  018%=      5-min Rain = 0
KPFS 091820Z 23012G18KT 25/M02 A2977 RMK A01 T02461018  RH  018%=      5-min Rain = 0
KPFS 091825Z 22012G17KT 25/M02 A2977 RMK A01 T02511021  RH  017%=      5-min Rain = 0
KPFS 091830Z 23013G22KT 26/M03 A2976 RMK A01 T02561025  RH  016%=      5-min Rain = 0
KPFS 091835Z 24012KT 26/M03 A2976 RMK A01 T02641032  RH  014%=      5-min Rain = 0
KPFS 091840Z 24012G17KT 26/M04 A2976 RMK A01 T02641035  RH  014%=      5-min Rain = 0
KPFS 091845Z 23013KT 27/M04 A2976 RMK A01 T02661042  RH  013%=      5-min Rain = 0
KPFS 091850Z 24011G17KT 27/M04 A2975 RMK A01 T02721042  RH  013%=      5-min Rain = 0
KPFS 091855Z 25013G19KT 27/M05 A2975 RMK A01 T02731047  RH  012%=      5-min Rain = 0
KPFS 091900Z 24010G15KT 27/M05 A2975 RMK A01 T02731050  RH  012%=      5-min Rain = 0
KPFS 091905Z 22012KT 27/M05 A2974 RMK A01 T02711051  RH  012%=      5-min Rain = 0
KPFS 091910Z 24010G16KT 28/M06 A2974 RMK A01 T02751059  RH  011%=      5-min Rain = 0
KPFS 091915Z 24012KT 28/M06 A2974 RMK A01 T02761060  RH  011%=      5-min Rain = 0
KPFS 091920Z 24010G15KT 28/M06 A2974 RMK A01 T02811060  RH  010%=      5-min Rain = 0
KPFS 091925Z 24011G17KT 29/M06 A2973 RMK A01 T02901062  RH  010%=      5-min Rain = 0
KPFS 091930Z 25011G18KT 29/M07 A2973 RMK A01 T02891071  RH  009%=      5-min Rain = 0
KPFS 091935Z 25012KT 29/M07 A2973 RMK A01 T02871069  RH  009%=      5-min Rain = 0
KPFS 091940Z 25011G17KT 29/M07 A2972 RMK A01 T02901067  RH  009%=      5-min Rain = 0
KPFS 091945Z 23011G17KT 29/M06 A2972 RMK A01 T02871064  RH  010%=      5-min Rain = 0
KPFS 091950Z 21011KT 28/M06 A2972 RMK A01 T02841064  RH  010%=      5-min Rain = 0
KPFS 091955Z 22011KT 29/M07 A2972 RMK A01 T02901072  RH  009%=      5-min Rain = 0
KPFS 092000Z 24008G14KT 29/M07 A2972 RMK A01 T02881073  RH  009%=      5-min Rain = 0
KPFS 092005Z 22008G15KT 29/M07 A2972 RMK A01 T02881070  RH  009%=      5-min Rain = 0
KPFS 092010Z 21012G17KT 29/M07 A2971 RMK A01 T02921074  RH  009%=      5-min Rain = 0
KPFS 092015Z 21010G17KT 29/M07 A2971 RMK A01 T02921074  RH  009%=      5-min Rain = 0
KPFS 092020Z 21013G18KT 29/M08 A2971 RMK A01 T02861084  RH  008%=      5-min Rain = 0
KPFS 092025Z 23011G17KT 29/M08 A2971 RMK A01 T02911083  RH  008%=      5-min Rain = 0
KPFS 092030Z 26009G14KT 29/M09 A2971 RMK A01 T02931093  RH  008%=      5-min Rain = 0
KPFS 092035Z 24010G16KT 30/M10 A2971 RMK A01 T02971095  RH  007%=      5-min Rain = 0
KPFS 092040Z 24011G18KT 29/M10 A2971 RMK A01 T02901102  RH  007%=      5-min Rain = 0
KPFS 092045Z 23008KT 28/M10 A297 RMK A01 T02841096  RH  008%=      5-min Rain = 0
KPFS 092050Z 26010KT 29/M10 A297 RMK A01 T02861096  RH  008%=      5-min Rain = 0
KPFS 092055Z 23008G15KT 28/M10 A297 RMK A01 T02811096  RH  008%=      5-min Rain = 0
KPFS 092100Z 22013KT 28/M10 A297 RMK A01 T02791101  RH  008%=      5-min Rain = 0
KPFS 092105Z 21010KT 28/M10 A297 RMK A01 T02791103  RH  008%=      5-min Rain = 0
KPFS 092110Z 23011KT 28/M10 A297 RMK A01 T02801100  RH  008%=      5-min Rain = 0
KPFS 092115Z 21012KT 28/M10 A297 RMK A01 T02771104  RH  008%=      5-min Rain = 0
KPFS 092120Z 22011KT 28/M10 A297 RMK A01 T02771100  RH  008%=      5-min Rain = 0
KPFS 092125Z 22011KT 28/M10 A297 RMK A01 T02781096  RH  008%=      5-min Rain = 0
KPFS 092130Z 22012G18KT 28/M10 A297 RMK A01 T02771098  RH  008%=      5-min Rain = 0
KPFS 092135Z 23011KT 28/M11 A297 RMK A01 T02821105  RH  007%=      5-min Rain = 0
KPFS 092140Z 23012G19KT 28/M10 A297 RMK A01 T02801099  RH  008%=      5-min Rain = 0
KPFS 092145Z 24012G17KT 28/M10 A297 RMK A01 T02841104  RH  007%=      5-min Rain = 0
KPFS 092150Z 26010KT 28/M11 A297 RMK A01 T02831110  RH  007%=      5-min Rain = 0
KPFS 092155Z 25009G15KT 28/M10 A297 RMK A01 T02801102  RH  008%=      5-min Rain = 0
KPFS 092200Z 25010KT 28/M12 A297 RMK A01 T02811121  RH  007%=      5-min Rain = 0
KPFS 092205Z 23010KT 29/M11 A297 RMK A01 T02871111  RH  007%=      5-min Rain = 0
KPFS 092210Z 24012G17KT 29/M11 A297 RMK A01 T02941113  RH  006%=      5-min Rain = 0
KPFS 092215Z 26009G17KT 29/M12 A2969 RMK A01 T02901115  RH  006%=      5-min Rain = 0
KPFS 092220Z 29012G17KT 28/M13 A297 RMK A01 T02841128  RH  006%=      5-min Rain = 0
KPFS 092225Z 28010KT 28/M12 A297 RMK A01 T02811119  RH  007%=      5-min Rain = 0
KPFS 092230Z 27008KT 29/M11 A297 RMK A01 T02851113  RH  007%=      5-min Rain = 0
KPFS 092235Z 28008G13KT 28/M12 A2969 RMK A01 T02801117  RH  007%=      5-min Rain = 0
KPFS 092240Z 29009G14KT 28/M12 A2969 RMK A01 T02791116  RH  007%=      5-min Rain = 0
KPFS 092245Z 29010KT 28/M12 A2969 RMK A01 T02771115  RH  007%=      5-min Rain = 0
KPFS 092250Z 29009KT 28/M11 A2969 RMK A01 T02841114  RH  007%=      5-min Rain = 0
KPFS 092255Z 29009G15KT 29/M11 A2969 RMK A01 T02881111  RH  007%=      5-min Rain = 0
KPFS 092300Z 30011G17KT 29/M12 A2969 RMK A01 T02921118  RH  006%=      5-min Rain = 0
KPFS 092305Z 30009G14KT 29/M12 A2969 RMK A01 T02901120  RH  006%=      5-min Rain = 0
KPFS 092310Z 32006KT 29/M12 A2969 RMK A01 T02891119  RH  006%=      5-min Rain = 0
KPFS 092315Z 29009G14KT 29/M12 A2969 RMK A01 T02881115  RH  007%=      5-min Rain = 0
KPFS 092320Z 29009KT 29/M11 A2969 RMK A01 T02871111  RH  007%=      5-min Rain = 0
KPFS 092325Z 29006G11KT 28/M11 A2969 RMK A01 T02831114  RH  007%=      5-min Rain = 0
KPFS 092330Z 28007KT 28/M12 A2969 RMK A01 T02781115  RH  007%=      5-min Rain = 0
KPFS 092335Z 31007KT 27/M12 A2969 RMK A01 T02711119  RH  007%=      5-min Rain = 0
KPFS 092340Z 31006KT 27/M12 A2969 RMK A01 T02671120  RH  007%=      5-min Rain = 0
KPFS 092345Z 33004KT 27/M12 A2969 RMK A01 T02661119  RH  007%=      5-min Rain = 0
KPFS 092350Z 33004KT 26/M12 A2969 RMK A01 T02631119  RH  007%=      5-min Rain = 0
KPFS 092355Z 32003KT 26/M12 A2969 RMK A01 T02621118  RH  007%=      5-min Rain = 0
KPFS 100000Z 31003KT 26/M12 A2969 RMK A01 T02621118  RH  007%=      5-min Rain = 0
KPFS 100005Z 32003KT 26/M12 A2969 RMK A01 T02621119  RH  007%=      5-min Rain = 0
KPFS 100010Z 33003KT 26/M12 A2969 RMK A01 T02591119  RH  007%=      5-min Rain = 0
KPFS 100015Z 34004KT 26/M12 A2969 RMK A01 T02551120  RH  008%=      5-min Rain = 0
KPFS 100020Z 35004KT 25/M12 A2969 RMK A01 T02511121  RH  008%=      5-min Rain = 0
KPFS 100025Z 01005KT 25/M12 A2968 RMK A01 T02501122  RH  008%=      5-min Rain = 0
KPFS 100030Z 01005KT 25/M12 A2969 RMK A01 T02491124  RH  008%=      5-min Rain = 0
KPFS 100035Z 01004KT 25/M13 A2969 RMK A01 T02481125  RH  008%=      5-min Rain = 0
KPFS 100040Z 01004KT 25/M13 A2969 RMK A01 T02481127  RH  007%=      5-min Rain = 0
KPFS 100045Z 02003KT 25/M13 A2969 RMK A01 T02471128  RH  008%=      5-min Rain = 0
KPFS 100050Z 02003KT 25/M13 A2969 RMK A01 T02471129  RH  007%=      5-min Rain = 0
KPFS 100055Z 03002KT 25/M13 A2969 RMK A01 T02501130  RH  007%=      5-min Rain = 0
KPFS 100100Z 01005KT 25/M13 A297 RMK A01 T02471129  RH  007%=      5-min Rain = 0
KPFS 100105Z 03008KT 23/M12 A297 RMK A01 T02291118  RH  009%=      5-min Rain = 0
KPFS 100110Z 05008KT 21/M11 A297 RMK A01 T02141112  RH  010%=      5-min Rain = 0
KPFS 100115Z 05008KT 22/M10 A297 RMK A01 T02191103  RH  011%=      5-min Rain = 0
KPFS 100120Z 05007KT 21/M10 A2971 RMK A01 T02141099  RH  012%=      5-min Rain = 0
KPFS 100125Z 04007KT 21/M09 A2971 RMK A01 T02071094  RH  012%=      5-min Rain = 0
KPFS 100130Z 04008KT 21/M09 A2971 RMK A01 T02051087  RH  013%=      5-min Rain = 0
KPFS 100135Z 03007KT 20/M09 A2971 RMK A01 T02031086  RH  014%=      5-min Rain = 0
KPFS 100140Z 03007KT 20/M09 A2971 RMK A01 T01981085  RH  014%=      5-min Rain = 0
KPFS 100145Z 03007KT 20/M08 A2971 RMK A01 T01951083  RH  015%=      5-min Rain = 0
KPFS 100150Z 03008KT 19/M08 A2972 RMK A01 T01911082  RH  015%=      5-min Rain = 0
KPFS 100155Z 03007KT 19/M08 A2972 RMK A01 T01881081  RH  016%=      5-min Rain = 0
KPFS 100200Z 02008KT 19/M08 A2972 RMK A01 T01871079  RH  016%=      5-min Rain = 0
KPFS 100205Z 02007KT 19/M08 A2972 RMK A01 T01861079  RH  016%=      5-min Rain = 0
KPFS 100210Z 02008KT 18/M08 A2972 RMK A01 T01821078  RH  016%=      5-min Rain = 0
KPFS 100215Z 02007KT 18/M08 A2973 RMK A01 T01781078  RH  017%=      5-min Rain = 0
KPFS 100220Z 03007KT 17/M08 A2973 RMK A01 T01741077  RH  017%=      5-min Rain = 0
KPFS 100225Z 03008KT 17/M08 A2973 RMK A01 T01691077  RH  018%=      5-min Rain = 0
KPFS 100230Z 03008KT 17/M08 A2973 RMK A01 T01671076  RH  018%=      5-min Rain = 0
KPFS 100235Z 03007KT 17/M08 A2973 RMK A01 T01661075  RH  019%=      5-min Rain = 0
KPFS 100240Z 02007KT 17/M07 A2974 RMK A01 T01671073  RH  019%=      5-min Rain = 0
KPFS 100245Z 03007KT 17/M07 A2974 RMK A01 T01661073  RH  019%=      5-min Rain = 0
KPFS 100250Z 03008KT 16/M07 A2974 RMK A01 T01631072  RH  019%=      5-min Rain = 0
KPFS 100255Z 02009KT 16/M07 A2974 RMK A01 T01621070  RH  020%=      5-min Rain = 0
KPFS 100300Z 03009KT 17/M07 A2974 RMK A01 T01651067  RH  020%=      5-min Rain = 0
KPFS 100305Z 03008KT 16/M07 A2974 RMK A01 T01641067  RH  020%=      5-min Rain = 0
KPFS 100310Z 03008KT 16/M07 A2973 RMK A01 T01611065  RH  021%=      5-min Rain = 0
KPFS 100315Z 03007KT 16/M06 A2974 RMK A01 T01591063  RH  021%=      5-min Rain = 0
KPFS 100320Z 03006KT 16/M06 A2974 RMK A01 T01571062  RH  022%=      5-min Rain = 0
KPFS 100325Z 02007KT 15/M06 A2974 RMK A01 T01541062  RH  022%=      5-min Rain = 0
KPFS 100330Z 02008KT 15/M06 A2974 RMK A01 T01521063  RH  022%=      5-min Rain = 0
KPFS 100335Z 02009KT 15/M06 A2975 RMK A01 T01521062  RH  023%=      5-min Rain = 0
KPFS 100340Z 01009KT 15/M06 A2975 RMK A01 T01511060  RH  023%=      5-min Rain = 0
KPFS 100345Z 02009KT 15/M06 A2975 RMK A01 T01491059  RH  023%=      5-min Rain = 0
KPFS 100350Z 02009KT 15/M06 A2975 RMK A01 T01471058  RH  024%=      5-min Rain = 0
KPFS 100355Z 01008KT 14/M06 A2975 RMK A01 T01441058  RH  024%=      5-min Rain = 0
KPFS 100400Z 01008KT 14/M06 A2975 RMK A01 T01421058  RH  025%=      5-min Rain = 0
KPFS 100405Z 01008KT 14/M06 A2975 RMK A01 T01401058  RH  025%=      5-min Rain = 0
KPFS 100410Z 01008KT 14/M06 A2975 RMK A01 T01361058  RH  026%=      5-min Rain = 0
KPFS 100415Z 01008KT 14/M06 A2976 RMK A01 T01371055  RH  026%=      5-min Rain = 0
KPFS 100420Z 01008KT 14/M05 A2976 RMK A01 T01371054  RH  026%=      5-min Rain = 0
KPFS 100425Z 01009KT 14/M05 A2976 RMK A01 T01371052  RH  027%=      5-min Rain = 0
KPFS 100430Z 00007KT 13/M05 A2976 RMK A01 T01331052  RH  027%=      5-min Rain = 0
KPFS 100435Z 36006KT 13/M05 A2976 RMK A01 T01301052  RH  028%=      5-min Rain = 0
KPFS 100440Z 36005KT 13/M05 A2977 RMK A01 T01281052  RH  028%=      5-min Rain = 0
KPFS 100445Z 01006KT 13/M05 A2976 RMK A01 T01301049  RH  029%=      5-min Rain = 0
KPFS 100450Z 01006KT 14/M05 A2976 RMK A01 T01371047  RH  028%=      5-min Rain = 0
KPFS 100455Z 01007KT 14/M05 A2976 RMK A01 T01381046  RH  028%=      5-min Rain = 0
KPFS 100500Z 00006KT 14/M05 A2976 RMK A01 T01361046  RH  028%=      5-min Rain = 0
KPFS 100505Z 36006KT 13/M05 A2976 RMK A01 T01341045  RH  029%=      5-min Rain = 0
KPFS 100510Z 36006KT 13/M05 A2976 RMK A01 T01301045  RH  029%=      5-min Rain = 0
KPFS 100515Z 36006KT 13/M04 A2976 RMK A01 T01301044  RH  030%=      5-min Rain = 0
KPFS 100520Z 36006KT 13/M04 A2976 RMK A01 T01321043  RH  030%=      5-min Rain = 0
KPFS 100525Z 00007KT 13/M04 A2976 RMK A01 T01341042  RH  029%=      5-min Rain = 0
KPFS 100530Z 00008KT 13/M04 A2976 RMK A01 T01341042  RH  030%=      5-min Rain = 0
KPFS 100535Z 01008KT 14/M04 A2976 RMK A01 T01361040  RH  030%=      5-min Rain = 0
KPFS 100540Z 01009KT 14/M04 A2976 RMK A01 T01351040  RH  030%=      5-min Rain = 0
KPFS 100545Z 00008KT 14/M04 A2976 RMK A01 T01351039  RH  030%=      5-min Rain = 0
KPFS 100550Z 35006KT 13/M04 A2977 RMK A01 T01321039  RH  030%=      5-min Rain = 0
KPFS 100555Z 35006KT 13/M04 A2977 RMK A01 T01301039  RH  031%=      5-min Rain = 0

Page generated in 0.0205 seconds.